FLI05YT BGBW-EKVG
Flight info
| Callsign | FLI05YT |
|---|---|
| Flight time | 2h 31m |
| Altitude | 37000 |
| Route | BW020 DCT 6119N4511W 6200N4030W DCT 6241N3321W 63N026W 63N021W 6242N1412W DCT MAGNI |
| Aircraft | A320/M-SDE3FGHIRWY/LB1 |
Departure
| Time | 2026-05-05 17:07 |
|---|---|
| Airport | Narsarsuaq Airport (BGBW) |
Arrival
| Time | 2026-05-05 19:39 |
|---|---|
| Airport | Vágar Airport (EKVG) |
| Time | Latitude | Longitude | Altitude | Speed | Heading |
|---|---|---|---|---|---|
| 2026-05-05 16:31 | 61.16200 | -45.41856 | 67 ft | 0 kts | 17° |
| 2026-05-05 16:57 | 61.16198 | -45.41858 | 71 ft | 3 kts | 17° |
| 2026-05-05 16:58 | 61.16189 | -45.41863 | 62 ft | 0 kts | 17° |
| 2026-05-05 17:00 | 61.16192 | -45.41862 | 67 ft | 1 kts | 17° |
| 2026-05-05 17:00 | 61.16207 | -45.41852 | 65 ft | 3 kts | 17° |
| 2026-05-05 17:01 | 61.16227 | -45.41867 | 69 ft | 3 kts | 322° |
| 2026-05-05 17:01 | 61.16237 | -45.41889 | 68 ft | 1 kts | 313° |
| 2026-05-05 17:01 | 61.16250 | -45.41920 | 64 ft | 4 kts | 311° |
| 2026-05-05 17:01 | 61.16276 | -45.41982 | 70 ft | 6 kts | 310° |
| 2026-05-05 17:02 | 61.16295 | -45.42030 | 70 ft | 2 kts | 309° |
| 2026-05-05 17:02 | 61.16305 | -45.42057 | 76 ft | 4 kts | 304° |
| 2026-05-05 17:02 | 61.16306 | -45.42137 | 82 ft | 12 kts | 253° |
| 2026-05-05 17:02 | 61.16244 | -45.42270 | 71 ft | 14 kts | 221° |
| 2026-05-05 17:03 | 61.16167 | -45.42406 | 74 ft | 16 kts | 220° |
| 2026-05-05 17:03 | 61.16080 | -45.42556 | 71 ft | 17 kts | 219° |
| 2026-05-05 17:03 | 61.15988 | -45.42719 | 65 ft | 18 kts | 221° |
| 2026-05-05 17:03 | 61.15896 | -45.42883 | 61 ft | 18 kts | 220° |
| 2026-05-05 17:04 | 61.15802 | -45.43049 | 60 ft | 18 kts | 220° |
| 2026-05-05 17:04 | 61.15701 | -45.43225 | 54 ft | 13 kts | 220° |
| 2026-05-05 17:04 | 61.15632 | -45.43344 | 51 ft | 15 kts | 220° |
| 2026-05-05 17:04 | 61.15554 | -45.43482 | 49 ft | 15 kts | 220° |
| 2026-05-05 17:05 | 61.15489 | -45.43626 | 44 ft | 2 kts | 233° |
| 2026-05-05 17:05 | 61.15483 | -45.43624 | 45 ft | 1 kts | 175° |
| 2026-05-05 17:05 | 61.15483 | -45.43609 | 47 ft | 1 kts | 99° |
| 2026-05-05 17:05 | 61.15489 | -45.43599 | 47 ft | 2 kts | 44° |
| 2026-05-05 17:06 | 61.15491 | -45.43595 | 44 ft | 0 kts | 43° |
| 2026-05-05 17:06 | 61.15498 | -45.43581 | 46 ft | 16 kts | 43° |
| 2026-05-05 17:06 | 61.15802 | -45.43040 | 60 ft | 97 kts | 41° |
| 2026-05-05 17:07 | 61.16420 | -45.41918 | 422 ft | 125 kts | 42° |
| 2026-05-05 17:07 | 61.17104 | -45.40734 | 1131 ft | 130 kts | 42° |
| 2026-05-05 17:07 | 61.17809 | -45.39520 | 1936 ft | 134 kts | 43° |
| 2026-05-05 17:07 | 61.18546 | -45.38172 | 2465 ft | 150 kts | 43° |
| 2026-05-05 17:08 | 61.19353 | -45.36716 | 2913 ft | 158 kts | 42° |
| 2026-05-05 17:08 | 61.20269 | -45.35287 | 3377 ft | 173 kts | 37° |
| 2026-05-05 17:08 | 61.21305 | -45.33782 | 3790 ft | 190 kts | 38° |
| 2026-05-05 17:08 | 61.22447 | -45.32149 | 4169 ft | 212 kts | 37° |
| 2026-05-05 17:09 | 61.23744 | -45.30316 | 4578 ft | 238 kts | 37° |
| 2026-05-05 17:09 | 61.25139 | -45.28271 | 5183 ft | 251 kts | 39° |
| 2026-05-05 17:09 | 61.26572 | -45.26101 | 5984 ft | 259 kts | 40° |
| 2026-05-05 17:09 | 61.28048 | -45.23844 | 6793 ft | 267 kts | 40° |
| 2026-05-05 17:10 | 61.29562 | -45.21528 | 7569 ft | 273 kts | 40° |
| 2026-05-05 17:10 | 61.31007 | -45.18941 | 8346 ft | 275 kts | 52° |
| 2026-05-05 17:10 | 61.32080 | -45.15643 | 9109 ft | 276 kts | 69° |
| 2026-05-05 17:10 | 61.32752 | -45.11877 | 9917 ft | 279 kts | 75° |
| 2026-05-05 17:11 | 61.33385 | -45.07992 | 10510 ft | 292 kts | 75° |
| 2026-05-05 17:11 | 61.34064 | -45.03822 | 10758 ft | 316 kts | 75° |
| 2026-05-05 17:11 | 61.34794 | -44.99354 | 11115 ft | 333 kts | 73° |
| 2026-05-05 17:11 | 61.35555 | -44.94727 | 11772 ft | 340 kts | 74° |
| 2026-05-05 17:12 | 61.36328 | -44.90040 | 12480 ft | 345 kts | 73° |
| 2026-05-05 17:12 | 61.37115 | -44.85273 | 13179 ft | 350 kts | 72° |
| 2026-05-05 17:12 | 61.37914 | -44.80429 | 13844 ft | 356 kts | 73° |
| 2026-05-05 17:12 | 61.38723 | -44.75504 | 14476 ft | 360 kts | 74° |
| 2026-05-05 17:13 | 61.39534 | -44.70541 | 15173 ft | 363 kts | 73° |
| 2026-05-05 17:13 | 61.40348 | -44.65521 | 15851 ft | 365 kts | 74° |
| 2026-05-05 17:13 | 61.41161 | -44.60482 | 16513 ft | 367 kts | 73° |
| 2026-05-05 17:13 | 61.41978 | -44.55411 | 17157 ft | 370 kts | 75° |
| 2026-05-05 17:14 | 61.42799 | -44.50301 | 17840 ft | 372 kts | 74° |
| 2026-05-05 17:14 | 61.43619 | -44.45168 | 18548 ft | 374 kts | 74° |
| 2026-05-05 17:14 | 61.44441 | -44.39988 | 19112 ft | 377 kts | 75° |
| 2026-05-05 17:14 | 61.45265 | -44.34768 | 19604 ft | 381 kts | 75° |
| 2026-05-05 17:15 | 61.46090 | -44.29552 | 20087 ft | 385 kts | 75° |
| 2026-05-05 17:15 | 61.46942 | -44.24165 | 20499 ft | 394 kts | 75° |
| 2026-05-05 17:15 | 61.47810 | -44.18700 | 20992 ft | 398 kts | 75° |
| 2026-05-05 17:15 | 61.48682 | -44.13178 | 21547 ft | 401 kts | 74° |
| 2026-05-05 17:16 | 61.49558 | -44.07614 | 22069 ft | 404 kts | 75° |
| 2026-05-05 17:16 | 61.50439 | -44.01994 | 22567 ft | 408 kts | 75° |
| 2026-05-05 17:16 | 61.51326 | -43.96330 | 23060 ft | 411 kts | 75° |
| 2026-05-05 17:16 | 61.52217 | -43.90611 | 23541 ft | 414 kts | 75° |
| 2026-05-05 17:17 | 61.53106 | -43.84852 | 24050 ft | 417 kts | 75° |
| 2026-05-05 17:17 | 61.53999 | -43.79037 | 24430 ft | 420 kts | 75° |
| 2026-05-05 17:17 | 61.54895 | -43.73207 | 24828 ft | 422 kts | 74° |
| 2026-05-05 17:17 | 61.55796 | -43.67330 | 25220 ft | 424 kts | 75° |
| 2026-05-05 17:18 | 61.56694 | -43.61440 | 25630 ft | 425 kts | 73° |
| 2026-05-05 17:18 | 61.57596 | -43.55513 | 25981 ft | 429 kts | 74° |
| 2026-05-05 17:18 | 61.58508 | -43.49514 | 26275 ft | 433 kts | 74° |
| 2026-05-05 17:18 | 61.59423 | -43.43460 | 26619 ft | 436 kts | 74° |
| 2026-05-05 17:19 | 61.60338 | -43.37372 | 26968 ft | 438 kts | 73° |
| 2026-05-05 17:19 | 61.61257 | -43.31259 | 27320 ft | 440 kts | 74° |
| 2026-05-05 17:19 | 61.62179 | -43.25120 | 27689 ft | 441 kts | 74° |
| 2026-05-05 17:19 | 61.63101 | -43.18964 | 28026 ft | 443 kts | 73° |
| 2026-05-05 17:20 | 61.63714 | -43.14859 | 28260 ft | 444 kts | 73° |
| 2026-05-05 17:20 | 61.64637 | -43.08639 | 28593 ft | 446 kts | 73° |
| 2026-05-05 17:20 | 61.65556 | -43.02396 | 28933 ft | 448 kts | 73° |
| 2026-05-05 17:20 | 61.66475 | -42.96124 | 29253 ft | 449 kts | 73° |
| 2026-05-05 17:21 | 61.67396 | -42.89816 | 29535 ft | 451 kts | 73° |
| 2026-05-05 17:21 | 61.68320 | -42.83478 | 29783 ft | 454 kts | 72° |
| 2026-05-05 17:21 | 61.69250 | -42.77087 | 29961 ft | 458 kts | 72° |
| 2026-05-05 17:22 | 61.71112 | -42.64176 | 30434 ft | 462 kts | 72° |
| 2026-05-05 17:22 | 61.72046 | -42.57677 | 30667 ft | 464 kts | 72° |
| 2026-05-05 17:22 | 61.72969 | -42.51258 | 30949 ft | 463 kts | 72° |
| 2026-05-05 17:22 | 61.73910 | -42.44688 | 31267 ft | 461 kts | 72° |
| 2026-05-05 17:23 | 61.74827 | -42.38232 | 31591 ft | 459 kts | 71° |
| 2026-05-05 17:23 | 61.75728 | -42.31862 | 31903 ft | 457 kts | 72° |
| 2026-05-05 17:23 | 61.76634 | -42.25426 | 32216 ft | 456 kts | 72° |
| 2026-05-05 17:23 | 61.77534 | -42.19029 | 32554 ft | 454 kts | 71° |
| 2026-05-05 17:24 | 61.78426 | -42.12642 | 32907 ft | 452 kts | 71° |
| 2026-05-05 17:24 | 61.79315 | -42.06248 | 33144 ft | 453 kts | 71° |
| 2026-05-05 17:24 | 61.80202 | -41.99848 | 33384 ft | 454 kts | 70° |
| 2026-05-05 17:24 | 61.81083 | -41.93457 | 33671 ft | 453 kts | 71° |
| 2026-05-05 17:25 | 61.81962 | -41.87064 | 33980 ft | 452 kts | 70° |
| 2026-05-05 17:25 | 61.82540 | -41.82838 | 34181 ft | 451 kts | 71° |
| 2026-05-05 17:25 | 61.83704 | -41.74318 | 34592 ft | 449 kts | 71° |
| 2026-05-05 17:25 | 61.84567 | -41.67986 | 34851 ft | 448 kts | 70° |
| 2026-05-05 17:26 | 61.85432 | -41.61645 | 35104 ft | 447 kts | 71° |
| 2026-05-05 17:26 | 61.86288 | -41.55321 | 35337 ft | 447 kts | 70° |
| 2026-05-05 17:26 | 61.87136 | -41.49005 | 35560 ft | 446 kts | 71° |
| 2026-05-05 17:26 | 61.87982 | -41.42674 | 35778 ft | 446 kts | 70° |
| 2026-05-05 17:27 | 61.88823 | -41.36353 | 35985 ft | 446 kts | 71° |
| 2026-05-05 17:27 | 61.89667 | -41.29995 | 36114 ft | 448 kts | 69° |
| 2026-05-05 17:27 | 61.90511 | -41.23632 | 36262 ft | 449 kts | 69° |
| 2026-05-05 17:27 | 61.91354 | -41.17243 | 36443 ft | 449 kts | 70° |
| 2026-05-05 17:28 | 61.92180 | -41.10945 | 36621 ft | 449 kts | 69° |
| 2026-05-05 17:28 | 61.93016 | -41.04553 | 36823 ft | 449 kts | 71° |
| 2026-05-05 17:28 | 61.93847 | -40.98162 | 37016 ft | 448 kts | 71° |
| 2026-05-05 17:28 | 61.94672 | -40.91774 | 37204 ft | 448 kts | 70° |
| 2026-05-05 17:29 | 61.95495 | -40.85382 | 37389 ft | 448 kts | 71° |
| 2026-05-05 17:29 | 61.96319 | -40.78983 | 37502 ft | 448 kts | 71° |
| 2026-05-05 17:29 | 61.97143 | -40.72595 | 37518 ft | 448 kts | 71° |
| 2026-05-05 17:30 | 61.98782 | -40.59779 | 37511 ft | 450 kts | 70° |
| 2026-05-05 17:30 | 62.00398 | -40.46905 | 37509 ft | 453 kts | 70° |
| 2026-05-05 17:31 | 62.01992 | -40.33960 | 37513 ft | 453 kts | 71° |
| 2026-05-05 17:31 | 62.03576 | -40.20967 | 37492 ft | 453 kts | 71° |
| 2026-05-05 17:32 | 62.05149 | -40.07946 | 37495 ft | 453 kts | 71° |
| 2026-05-05 17:32 | 62.06710 | -39.94913 | 37498 ft | 453 kts | 72° |
| 2026-05-05 17:33 | 62.08252 | -39.81917 | 37499 ft | 454 kts | 72° |
| 2026-05-05 17:33 | 62.09799 | -39.68794 | 37507 ft | 454 kts | 73° |
| 2026-05-05 17:34 | 62.11320 | -39.55772 | 37498 ft | 454 kts | 72° |
| 2026-05-05 17:34 | 62.12839 | -39.42639 | 37493 ft | 454 kts | 72° |
| 2026-05-05 17:35 | 62.14328 | -39.29606 | 37486 ft | 454 kts | 72° |
| 2026-05-05 17:35 | 62.15829 | -39.16450 | 37491 ft | 454 kts | 73° |
| 2026-05-05 17:36 | 62.17315 | -39.03307 | 37487 ft | 455 kts | 72° |
| 2026-05-05 17:36 | 62.18780 | -38.90151 | 37476 ft | 456 kts | 72° |
| 2026-05-05 17:37 | 62.20247 | -38.76845 | 37460 ft | 457 kts | 73° |
| 2026-05-05 17:37 | 62.21690 | -38.63578 | 37464 ft | 457 kts | 73° |
| 2026-05-05 17:38 | 62.23121 | -38.50351 | 37473 ft | 458 kts | 73° |
| 2026-05-05 17:38 | 62.24559 | -38.37002 | 37497 ft | 458 kts | 73° |
| 2026-05-05 17:39 | 62.25980 | -38.23719 | 37457 ft | 460 kts | 72° |
| 2026-05-05 17:39 | 62.27384 | -38.10333 | 37435 ft | 461 kts | 73° |
| 2026-05-05 17:40 | 62.28777 | -37.96848 | 37440 ft | 461 kts | 73° |
| 2026-05-05 17:40 | 62.30155 | -37.83444 | 37444 ft | 462 kts | 73° |
| 2026-05-05 17:41 | 62.31533 | -37.69935 | 37445 ft | 462 kts | 73° |
| 2026-05-05 17:41 | 62.32900 | -37.56435 | 37475 ft | 463 kts | 72° |
| 2026-05-05 17:42 | 62.34254 | -37.42846 | 37437 ft | 464 kts | 73° |
| 2026-05-05 17:42 | 62.35594 | -37.29248 | 37429 ft | 465 kts | 73° |
| 2026-05-05 17:43 | 62.36928 | -37.15597 | 37420 ft | 466 kts | 73° |
| 2026-05-05 17:43 | 62.38246 | -37.02033 | 37424 ft | 466 kts | 73° |
| 2026-05-05 17:44 | 62.39556 | -36.88337 | 37428 ft | 467 kts | 73° |
| 2026-05-05 17:44 | 62.40847 | -36.74588 | 37408 ft | 468 kts | 72° |
| 2026-05-05 17:45 | 62.42132 | -36.60817 | 37395 ft | 469 kts | 73° |
| 2026-05-05 17:45 | 62.43409 | -36.47000 | 37396 ft | 470 kts | 73° |
| 2026-05-05 17:46 | 62.44677 | -36.33129 | 37394 ft | 471 kts | 73° |
| 2026-05-05 17:46 | 62.45925 | -36.19258 | 37401 ft | 471 kts | 73° |
| 2026-05-05 17:47 | 62.47160 | -36.05372 | 37394 ft | 471 kts | 73° |
| 2026-05-05 17:47 | 62.48391 | -35.91463 | 37385 ft | 473 kts | 73° |
| 2026-05-05 17:48 | 62.49610 | -35.77455 | 37381 ft | 474 kts | 73° |
| 2026-05-05 17:48 | 62.50816 | -35.63383 | 37377 ft | 475 kts | 73° |
| 2026-05-05 17:49 | 62.52005 | -35.49386 | 37382 ft | 475 kts | 73° |
| 2026-05-05 17:49 | 62.53191 | -35.35242 | 37370 ft | 476 kts | 73° |
| 2026-05-05 17:50 | 62.54347 | -35.21206 | 37370 ft | 478 kts | 73° |
| 2026-05-05 17:50 | 62.55504 | -35.06983 | 37341 ft | 478 kts | 73° |
| 2026-05-05 17:51 | 62.56652 | -34.92794 | 37342 ft | 480 kts | 73° |
| 2026-05-05 17:51 | 62.57789 | -34.78503 | 37342 ft | 481 kts | 74° |
| 2026-05-05 17:52 | 62.58913 | -34.64168 | 37351 ft | 481 kts | 74° |
| 2026-05-05 17:52 | 62.60025 | -34.49839 | 37346 ft | 482 kts | 74° |
| 2026-05-05 17:53 | 62.61115 | -34.35471 | 37347 ft | 483 kts | 74° |
| 2026-05-05 17:53 | 62.62193 | -34.21122 | 37342 ft | 484 kts | 74° |
| 2026-05-05 17:54 | 62.63262 | -34.06684 | 37340 ft | 484 kts | 75° |
| 2026-05-05 17:54 | 62.64320 | -33.92240 | 37343 ft | 485 kts | 75° |
| 2026-05-05 17:55 | 62.65362 | -33.77696 | 37333 ft | 485 kts | 75° |
| 2026-05-05 17:55 | 62.66380 | -33.63221 | 37347 ft | 487 kts | 75° |
| 2026-05-05 17:56 | 62.67406 | -33.48616 | 37297 ft | 486 kts | 75° |
| 2026-05-05 17:56 | 62.68405 | -33.34104 | 37297 ft | 487 kts | 75° |
| 2026-05-05 17:57 | 62.69402 | -33.19523 | 37297 ft | 488 kts | 75° |
| 2026-05-05 17:57 | 62.70405 | -33.04920 | 37301 ft | 489 kts | 75° |
| 2026-05-05 17:58 | 62.71398 | -32.90221 | 37309 ft | 489 kts | 75° |
| 2026-05-05 17:58 | 62.72370 | -32.75522 | 37281 ft | 489 kts | 75° |
| 2026-05-05 17:59 | 62.73321 | -32.60846 | 37287 ft | 490 kts | 75° |
| 2026-05-05 17:59 | 62.74258 | -32.46157 | 37286 ft | 490 kts | 76° |
| 2026-05-05 18:00 | 62.75177 | -32.31405 | 37294 ft | 491 kts | 76° |
| 2026-05-05 18:00 | 62.76088 | -32.16594 | 37302 ft | 492 kts | 76° |
| 2026-05-05 18:01 | 62.76989 | -32.01827 | 37308 ft | 492 kts | 76° |
| 2026-05-05 18:01 | 62.77877 | -31.87028 | 37315 ft | 492 kts | 76° |
| 2026-05-05 18:02 | 62.78733 | -31.72158 | 37304 ft | 493 kts | 76° |
| 2026-05-05 18:02 | 62.79578 | -31.57302 | 37305 ft | 493 kts | 76° |
| 2026-05-05 18:03 | 62.80423 | -31.42464 | 37310 ft | 493 kts | 76° |
| 2026-05-05 18:03 | 62.81245 | -31.27560 | 37375 ft | 493 kts | 77° |
| 2026-05-05 18:04 | 62.82049 | -31.12715 | 37275 ft | 491 kts | 77° |
| 2026-05-05 18:04 | 62.82841 | -30.97912 | 37255 ft | 492 kts | 77° |
| 2026-05-05 18:05 | 62.83604 | -30.83039 | 37274 ft | 493 kts | 77° |
| 2026-05-05 18:05 | 62.84353 | -30.68091 | 37284 ft | 493 kts | 77° |
| 2026-05-05 18:06 | 62.85095 | -30.53165 | 37299 ft | 494 kts | 77° |
| 2026-05-05 18:06 | 62.85831 | -30.38180 | 37282 ft | 493 kts | 77° |
| 2026-05-05 18:07 | 62.86543 | -30.23309 | 37268 ft | 493 kts | 78° |
| 2026-05-05 18:07 | 62.87240 | -30.08379 | 37273 ft | 494 kts | 78° |
| 2026-05-05 18:08 | 62.87915 | -29.93402 | 37285 ft | 495 kts | 78° |
| 2026-05-05 18:08 | 62.88471 | -29.80871 | 37291 ft | 495 kts | 78° |
| 2026-05-05 18:09 | 62.89127 | -29.65760 | 37365 ft | 496 kts | 78° |
| 2026-05-05 18:09 | 62.89762 | -29.50750 | 37259 ft | 495 kts | 79° |
| 2026-05-05 18:10 | 62.90375 | -29.35677 | 37264 ft | 496 kts | 79° |
| 2026-05-05 18:10 | 62.90978 | -29.20666 | 37273 ft | 497 kts | 79° |
| 2026-05-05 18:11 | 62.91580 | -29.05567 | 37267 ft | 497 kts | 79° |
| 2026-05-05 18:11 | 62.92161 | -28.90449 | 37281 ft | 498 kts | 79° |
| 2026-05-05 18:12 | 62.92710 | -28.75253 | 37256 ft | 498 kts | 79° |
| 2026-05-05 18:12 | 62.93233 | -28.60071 | 37258 ft | 499 kts | 79° |
| 2026-05-05 18:13 | 62.93766 | -28.44861 | 37263 ft | 500 kts | 79° |
| 2026-05-05 18:13 | 62.94291 | -28.29643 | 37268 ft | 500 kts | 80° |
| 2026-05-05 18:14 | 62.94791 | -28.14434 | 37279 ft | 501 kts | 80° |
| 2026-05-05 18:14 | 62.95267 | -27.99153 | 37289 ft | 501 kts | 80° |
| 2026-05-05 18:15 | 62.95734 | -27.83913 | 37259 ft | 500 kts | 81° |
| 2026-05-05 18:15 | 62.96171 | -27.68645 | 37266 ft | 500 kts | 81° |
| 2026-05-05 18:16 | 62.96602 | -27.53363 | 37271 ft | 501 kts | 81° |
| 2026-05-05 18:16 | 62.97012 | -27.38060 | 37282 ft | 501 kts | 81° |
| 2026-05-05 18:17 | 62.97406 | -27.22738 | 37251 ft | 502 kts | 81° |
| 2026-05-05 18:17 | 62.97792 | -27.07433 | 37261 ft | 501 kts | 81° |
| 2026-05-05 18:18 | 62.98165 | -26.92131 | 37258 ft | 501 kts | 82° |
| 2026-05-05 18:18 | 62.98516 | -26.76933 | 37266 ft | 501 kts | 82° |
| 2026-05-05 18:19 | 62.98854 | -26.61611 | 37269 ft | 502 kts | 82° |
| 2026-05-05 18:19 | 62.99166 | -26.46248 | 37259 ft | 502 kts | 82° |
| 2026-05-05 18:20 | 62.99464 | -26.30895 | 37249 ft | 501 kts | 82° |
| 2026-05-05 18:20 | 62.99740 | -26.15605 | 37245 ft | 500 kts | 83° |
| 2026-05-05 18:21 | 62.99991 | -26.00282 | 37247 ft | 501 kts | 83° |
| 2026-05-05 18:21 | 63.00245 | -25.84952 | 37254 ft | 501 kts | 83° |
| 2026-05-05 18:22 | 63.00511 | -25.69624 | 37252 ft | 502 kts | 83° |
| 2026-05-05 18:22 | 63.00749 | -25.54258 | 37269 ft | 501 kts | 83° |
| 2026-05-05 18:23 | 63.00956 | -25.39054 | 37214 ft | 500 kts | 84° |
| 2026-05-05 18:23 | 63.01146 | -25.23746 | 37229 ft | 500 kts | 84° |
| 2026-05-05 18:24 | 63.01333 | -25.08427 | 37243 ft | 501 kts | 84° |
| 2026-05-05 18:24 | 63.01498 | -24.93103 | 37244 ft | 501 kts | 84° |
| 2026-05-05 18:25 | 63.01640 | -24.77760 | 37250 ft | 501 kts | 84° |
| 2026-05-05 18:25 | 63.01759 | -24.62449 | 37237 ft | 499 kts | 84° |
| 2026-05-05 18:26 | 63.01878 | -24.47174 | 37238 ft | 499 kts | 84° |
| 2026-05-05 18:26 | 63.01989 | -24.31872 | 37244 ft | 500 kts | 85° |
| 2026-05-05 18:27 | 63.02070 | -24.16564 | 37236 ft | 500 kts | 85° |
| 2026-05-05 18:27 | 63.02132 | -24.01307 | 37238 ft | 500 kts | 85° |
| 2026-05-05 18:28 | 63.02185 | -23.78342 | 37241 ft | 500 kts | 85° |
| 2026-05-05 18:28 | 63.02209 | -23.62989 | 37243 ft | 501 kts | 85° |
| 2026-05-05 18:29 | 63.02211 | -23.47639 | 37216 ft | 501 kts | 86° |
| 2026-05-05 18:29 | 63.02201 | -23.32288 | 37218 ft | 501 kts | 86° |
| 2026-05-05 18:30 | 63.02178 | -23.16966 | 37226 ft | 501 kts | 86° |
| 2026-05-05 18:30 | 63.02131 | -23.01664 | 37258 ft | 501 kts | 86° |
| 2026-05-05 18:31 | 63.02075 | -22.86304 | 37247 ft | 501 kts | 86° |
| 2026-05-05 18:31 | 63.02001 | -22.71055 | 37244 ft | 501 kts | 86° |
| 2026-05-05 18:32 | 63.01903 | -22.55718 | 37242 ft | 501 kts | 87° |
| 2026-05-05 18:32 | 63.01794 | -22.40369 | 37235 ft | 501 kts | 87° |
| 2026-05-05 18:33 | 63.01666 | -22.25068 | 37229 ft | 500 kts | 87° |
| 2026-05-05 18:33 | 63.01526 | -22.09841 | 37219 ft | 499 kts | 87° |
| 2026-05-05 18:34 | 63.01365 | -21.94498 | 37217 ft | 499 kts | 88° |
| 2026-05-05 18:34 | 63.01190 | -21.79213 | 37215 ft | 499 kts | 88° |
| 2026-05-05 18:35 | 63.00999 | -21.63989 | 37214 ft | 499 kts | 88° |
| 2026-05-05 18:35 | 63.00788 | -21.48714 | 37265 ft | 499 kts | 88° |
| 2026-05-05 18:36 | 63.00564 | -21.33502 | 37215 ft | 497 kts | 89° |
| 2026-05-05 18:36 | 63.00319 | -21.18307 | 37216 ft | 498 kts | 89° |
| 2026-05-05 18:37 | 63.00056 | -21.03010 | 37218 ft | 498 kts | 89° |
| 2026-05-05 18:37 | 62.99765 | -20.87839 | 37220 ft | 498 kts | 89° |
| 2026-05-05 18:38 | 62.99443 | -20.72600 | 37218 ft | 498 kts | 89° |
| 2026-05-05 18:38 | 62.99101 | -20.57353 | 37245 ft | 498 kts | 90° |
| 2026-05-05 18:39 | 62.98749 | -20.42188 | 37239 ft | 498 kts | 90° |
| 2026-05-05 18:39 | 62.98375 | -20.26926 | 37232 ft | 497 kts | 90° |
| 2026-05-05 18:40 | 62.97994 | -20.11822 | 37231 ft | 497 kts | 90° |
| 2026-05-05 18:40 | 62.97595 | -19.96665 | 37229 ft | 497 kts | 90° |
| 2026-05-05 18:41 | 62.97168 | -19.81470 | 37255 ft | 497 kts | 91° |
| 2026-05-05 18:41 | 62.96725 | -19.66325 | 37224 ft | 496 kts | 91° |
| 2026-05-05 18:42 | 62.96280 | -19.51239 | 37220 ft | 496 kts | 91° |
| 2026-05-05 18:42 | 62.95822 | -19.36153 | 37223 ft | 496 kts | 91° |
| 2026-05-05 18:43 | 62.95342 | -19.20938 | 37221 ft | 496 kts | 91° |
| 2026-05-05 18:43 | 62.94839 | -19.05824 | 37221 ft | 497 kts | 92° |
| 2026-05-05 18:44 | 62.94319 | -18.90778 | 37233 ft | 496 kts | 92° |
| 2026-05-05 18:44 | 62.93786 | -18.75647 | 37228 ft | 495 kts | 92° |
| 2026-05-05 18:45 | 62.93241 | -18.60519 | 37226 ft | 496 kts | 92° |
| 2026-05-05 18:45 | 62.92683 | -18.45467 | 37223 ft | 496 kts | 92° |
| 2026-05-05 18:46 | 62.92099 | -18.30476 | 37226 ft | 496 kts | 92° |
| 2026-05-05 18:46 | 62.91500 | -18.15329 | 37247 ft | 496 kts | 93° |
| 2026-05-05 18:47 | 62.90893 | -18.00296 | 37238 ft | 496 kts | 93° |
| 2026-05-05 18:47 | 62.90266 | -17.85239 | 37210 ft | 496 kts | 93° |
| 2026-05-05 18:48 | 62.89625 | -17.70175 | 37211 ft | 497 kts | 93° |
| 2026-05-05 18:48 | 62.88965 | -17.55053 | 37218 ft | 498 kts | 93° |
| 2026-05-05 18:49 | 62.88292 | -17.39988 | 37257 ft | 498 kts | 94° |
| 2026-05-05 18:49 | 62.87586 | -17.24831 | 37248 ft | 498 kts | 94° |
| 2026-05-05 18:50 | 62.86879 | -17.09824 | 37241 ft | 497 kts | 94° |
| 2026-05-05 18:50 | 62.86162 | -16.94760 | 37238 ft | 497 kts | 94° |
| 2026-05-05 18:51 | 62.85424 | -16.79703 | 37232 ft | 497 kts | 94° |
| 2026-05-05 18:51 | 62.84664 | -16.64694 | 37232 ft | 497 kts | 94° |
| 2026-05-05 18:52 | 62.83886 | -16.49604 | 37243 ft | 496 kts | 95° |
| 2026-05-05 18:52 | 62.83087 | -16.34616 | 37236 ft | 496 kts | 95° |
| 2026-05-05 18:53 | 62.82281 | -16.19683 | 37228 ft | 496 kts | 95° |
| 2026-05-05 18:53 | 62.81466 | -16.04705 | 37207 ft | 496 kts | 95° |
| 2026-05-05 18:54 | 62.80638 | -15.89723 | 37198 ft | 497 kts | 95° |
| 2026-05-05 18:54 | 62.79923 | -15.77185 | 37204 ft | 497 kts | 95° |
| 2026-05-05 18:55 | 62.79046 | -15.62196 | 37207 ft | 498 kts | 95° |
| 2026-05-05 18:55 | 62.78172 | -15.47259 | 37207 ft | 498 kts | 95° |
| 2026-05-05 18:56 | 62.77276 | -15.32201 | 37208 ft | 498 kts | 96° |
| 2026-05-05 18:56 | 62.76366 | -15.17286 | 37209 ft | 499 kts | 96° |
| 2026-05-05 18:57 | 62.75425 | -15.02222 | 37230 ft | 499 kts | 96° |
| 2026-05-05 18:57 | 62.74472 | -14.87326 | 37233 ft | 498 kts | 96° |
| 2026-05-05 18:58 | 62.73504 | -14.72279 | 37236 ft | 498 kts | 96° |
| 2026-05-05 18:58 | 62.72535 | -14.57397 | 37226 ft | 497 kts | 96° |
| 2026-05-05 18:59 | 62.71545 | -14.42532 | 37226 ft | 497 kts | 97° |
| 2026-05-05 18:59 | 62.70535 | -14.27634 | 37184 ft | 497 kts | 97° |
| 2026-05-05 19:00 | 62.69519 | -14.12723 | 37221 ft | 498 kts | 97° |
| 2026-05-05 19:00 | 62.68539 | -13.97782 | 37223 ft | 498 kts | 96° |
| 2026-05-05 19:01 | 62.67562 | -13.82882 | 37216 ft | 498 kts | 97° |
| 2026-05-05 19:01 | 62.66560 | -13.67976 | 37215 ft | 498 kts | 97° |
| 2026-05-05 19:02 | 62.65534 | -13.53060 | 37218 ft | 498 kts | 97° |
| 2026-05-05 19:02 | 62.64492 | -13.38164 | 37238 ft | 498 kts | 97° |
| 2026-05-05 19:03 | 62.63439 | -13.23313 | 37227 ft | 498 kts | 97° |
| 2026-05-05 19:03 | 62.62374 | -13.08451 | 37227 ft | 497 kts | 97° |
| 2026-05-05 19:04 | 62.61294 | -12.93706 | 37225 ft | 497 kts | 98° |
| 2026-05-05 19:04 | 62.60183 | -12.78899 | 37210 ft | 497 kts | 98° |
| 2026-05-05 19:05 | 62.59063 | -12.64065 | 37221 ft | 497 kts | 98° |
| 2026-05-05 19:05 | 62.57932 | -12.49268 | 37220 ft | 497 kts | 98° |
| 2026-05-05 19:06 | 62.56791 | -12.34479 | 37190 ft | 497 kts | 98° |
| 2026-05-05 19:06 | 62.55631 | -12.19693 | 37192 ft | 498 kts | 98° |
| 2026-05-05 19:07 | 62.54446 | -12.04889 | 37193 ft | 498 kts | 99° |
| 2026-05-05 19:07 | 62.53244 | -11.90101 | 37199 ft | 498 kts | 99° |
| 2026-05-05 19:08 | 62.52035 | -11.75333 | 37207 ft | 498 kts | 99° |
| 2026-05-05 19:08 | 62.50809 | -11.60573 | 37201 ft | 498 kts | 99° |
| 2026-05-05 19:09 | 62.49565 | -11.45837 | 37193 ft | 498 kts | 99° |
| 2026-05-05 19:09 | 62.48306 | -11.31113 | 37192 ft | 498 kts | 99° |
| 2026-05-05 19:10 | 62.47030 | -11.16423 | 37191 ft | 498 kts | 99° |
| 2026-05-05 19:10 | 62.45747 | -11.01753 | 37209 ft | 498 kts | 100° |
| 2026-05-05 19:11 | 62.44446 | -10.87034 | 37193 ft | 498 kts | 100° |
| 2026-05-05 19:11 | 62.43126 | -10.72445 | 37189 ft | 497 kts | 100° |
| 2026-05-05 19:12 | 62.41783 | -10.57766 | 37153 ft | 498 kts | 100° |
| 2026-05-05 19:12 | 62.40426 | -10.43088 | 37156 ft | 498 kts | 101° |
| 2026-05-05 19:13 | 62.39067 | -10.28466 | 37162 ft | 499 kts | 101° |
| 2026-05-05 19:13 | 62.37685 | -10.13830 | 36752 ft | 499 kts | 101° |
| 2026-05-05 19:14 | 62.36980 | -10.06474 | 35809 ft | 504 kts | 101° |
| 2026-05-05 19:14 | 62.36264 | -9.99058 | 34828 ft | 508 kts | 101° |
| 2026-05-05 19:14 | 62.35541 | -9.91584 | 33846 ft | 512 kts | 101° |
| 2026-05-05 19:14 | 62.34815 | -9.84055 | 32686 ft | 515 kts | 101° |
| 2026-05-05 19:15 | 62.34078 | -9.76486 | 31483 ft | 519 kts | 101° |
| 2026-05-05 19:15 | 62.33330 | -9.68890 | 30417 ft | 520 kts | 101° |
| 2026-05-05 19:15 | 62.32580 | -9.61332 | 29650 ft | 512 kts | 101° |
| 2026-05-05 19:15 | 62.31836 | -9.53877 | 28879 ft | 505 kts | 101° |
| 2026-05-05 19:16 | 62.31105 | -9.46544 | 28132 ft | 499 kts | 101° |
| 2026-05-05 19:16 | 62.30378 | -9.39278 | 27375 ft | 493 kts | 101° |
| 2026-05-05 19:16 | 62.29659 | -9.32129 | 26648 ft | 487 kts | 101° |
| 2026-05-05 19:16 | 62.28939 | -9.25050 | 25929 ft | 482 kts | 101° |
| 2026-05-05 19:17 | 62.28217 | -9.18038 | 25216 ft | 478 kts | 102° |
| 2026-05-05 19:17 | 62.27497 | -9.11098 | 24513 ft | 474 kts | 102° |
| 2026-05-05 19:17 | 62.26784 | -9.04214 | 23829 ft | 470 kts | 101° |
| 2026-05-05 19:17 | 62.26077 | -8.97392 | 23099 ft | 465 kts | 101° |
| 2026-05-05 19:18 | 62.25386 | -8.90756 | 22501 ft | 458 kts | 101° |
| 2026-05-05 19:18 | 62.24685 | -8.84056 | 21912 ft | 450 kts | 102° |
| 2026-05-05 19:18 | 62.24009 | -8.77638 | 21364 ft | 445 kts | 102° |
| 2026-05-05 19:18 | 62.23324 | -8.71196 | 20842 ft | 440 kts | 102° |
| 2026-05-05 19:19 | 62.22644 | -8.64815 | 20264 ft | 436 kts | 102° |
| 2026-05-05 19:19 | 62.21970 | -8.58517 | 19720 ft | 432 kts | 102° |
| 2026-05-05 19:19 | 62.21297 | -8.52280 | 19157 ft | 428 kts | 102° |
| 2026-05-05 19:19 | 62.20624 | -8.46088 | 18591 ft | 425 kts | 102° |
| 2026-05-05 19:20 | 62.19954 | -8.39946 | 17992 ft | 421 kts | 102° |
| 2026-05-05 19:20 | 62.19296 | -8.33897 | 17408 ft | 416 kts | 102° |
| 2026-05-05 19:20 | 62.18643 | -8.27909 | 16913 ft | 409 kts | 102° |
| 2026-05-05 19:20 | 62.17995 | -8.21994 | 16357 ft | 405 kts | 102° |
| 2026-05-05 19:21 | 62.17349 | -8.16136 | 15745 ft | 401 kts | 102° |
| 2026-05-05 19:21 | 62.16718 | -8.10456 | 15099 ft | 383 kts | 102° |
| 2026-05-05 19:21 | 62.16117 | -8.05054 | 14591 ft | 365 kts | 102° |
| 2026-05-05 19:21 | 62.15531 | -7.99801 | 14075 ft | 361 kts | 102° |
| 2026-05-05 19:22 | 62.14947 | -7.94593 | 13518 ft | 360 kts | 102° |
| 2026-05-05 19:22 | 62.14358 | -7.89408 | 12988 ft | 357 kts | 102° |
| 2026-05-05 19:22 | 62.13780 | -7.84346 | 12487 ft | 353 kts | 102° |
| 2026-05-05 19:22 | 62.13152 | -7.79304 | 11997 ft | 350 kts | 108° |
| 2026-05-05 19:23 | 62.12299 | -7.74450 | 11500 ft | 347 kts | 110° |
| 2026-05-05 19:23 | 62.11440 | -7.69651 | 10990 ft | 344 kts | 110° |
| 2026-05-05 19:23 | 62.10589 | -7.64914 | 10638 ft | 338 kts | 110° |
| 2026-05-05 19:23 | 62.09759 | -7.60318 | 10504 ft | 325 kts | 110° |
| 2026-05-05 19:24 | 62.08960 | -7.55907 | 10374 ft | 313 kts | 110° |
| 2026-05-05 19:24 | 62.08182 | -7.51618 | 10124 ft | 306 kts | 110° |
| 2026-05-05 19:24 | 62.07419 | -7.47407 | 9952 ft | 304 kts | 110° |
| 2026-05-05 19:24 | 62.06655 | -7.43209 | 9777 ft | 303 kts | 110° |
| 2026-05-05 19:25 | 62.05882 | -7.38976 | 9262 ft | 305 kts | 110° |
| 2026-05-05 19:25 | 62.05119 | -7.34811 | 8720 ft | 298 kts | 110° |
| 2026-05-05 19:25 | 62.04363 | -7.30695 | 7948 ft | 298 kts | 110° |
| 2026-05-05 19:25 | 62.03615 | -7.26628 | 7249 ft | 294 kts | 110° |
| 2026-05-05 19:26 | 62.02872 | -7.22599 | 6610 ft | 289 kts | 110° |
| 2026-05-05 19:26 | 62.02143 | -7.18650 | 6017 ft | 284 kts | 110° |
| 2026-05-05 19:26 | 62.01429 | -7.14782 | 5459 ft | 282 kts | 110° |
| 2026-05-05 19:26 | 62.00716 | -7.10938 | 5199 ft | 264 kts | 110° |
| 2026-05-05 19:27 | 62.00079 | -7.07523 | 5142 ft | 241 kts | 110° |
| 2026-05-05 19:27 | 61.99470 | -7.04256 | 5082 ft | 236 kts | 110° |
| 2026-05-05 19:27 | 61.98871 | -7.01032 | 5018 ft | 230 kts | 110° |
| 2026-05-05 19:27 | 61.98293 | -6.97926 | 4959 ft | 225 kts | 110° |
| 2026-05-05 19:28 | 61.97719 | -6.94846 | 4831 ft | 223 kts | 110° |
| 2026-05-05 19:28 | 61.97148 | -6.91790 | 4729 ft | 222 kts | 110° |
| 2026-05-05 19:28 | 61.96577 | -6.88730 | 4619 ft | 222 kts | 110° |
| 2026-05-05 19:28 | 61.96014 | -6.85677 | 4569 ft | 223 kts | 109° |
| 2026-05-05 19:29 | 61.95459 | -6.82596 | 4516 ft | 223 kts | 109° |
| 2026-05-05 19:29 | 61.94908 | -6.79528 | 4462 ft | 223 kts | 109° |
| 2026-05-05 19:29 | 61.94357 | -6.76456 | 4410 ft | 222 kts | 109° |
| 2026-05-05 19:29 | 61.94020 | -6.73306 | 4352 ft | 217 kts | 82° |
| 2026-05-05 19:30 | 61.94547 | -6.70445 | 4303 ft | 205 kts | 44° |
| 2026-05-05 19:30 | 61.95627 | -6.68875 | 4239 ft | 176 kts | 11° |
| 2026-05-05 19:30 | 61.96750 | -6.68690 | 4196 ft | 152 kts | 345° |
| 2026-05-05 19:30 | 61.97670 | -6.69461 | 4122 ft | 137 kts | 323° |
| 2026-05-05 19:31 | 61.98364 | -6.70974 | 4059 ft | 148 kts | 302° |
| 2026-05-05 19:31 | 61.98706 | -6.73057 | 4008 ft | 152 kts | 279° |
| 2026-05-05 19:31 | 61.98650 | -6.75332 | 4010 ft | 155 kts | 269° |
| 2026-05-05 19:31 | 61.98534 | -6.77621 | 4009 ft | 155 kts | 269° |
| 2026-05-05 19:32 | 61.98417 | -6.79901 | 4008 ft | 156 kts | 268° |
| 2026-05-05 19:32 | 61.98303 | -6.82172 | 4013 ft | 156 kts | 268° |
| 2026-05-05 19:32 | 61.98190 | -6.84465 | 4009 ft | 156 kts | 268° |
| 2026-05-05 19:32 | 61.98077 | -6.86754 | 4009 ft | 155 kts | 269° |
| 2026-05-05 19:33 | 61.97963 | -6.89043 | 4011 ft | 155 kts | 268° |
| 2026-05-05 19:33 | 61.97849 | -6.91324 | 4011 ft | 155 kts | 268° |
| 2026-05-05 19:33 | 61.97885 | -6.93581 | 4008 ft | 151 kts | 287° |
| 2026-05-05 19:33 | 61.98281 | -6.95463 | 4004 ft | 133 kts | 299° |
| 2026-05-05 19:34 | 61.98711 | -6.97162 | 3871 ft | 129 kts | 299° |
| 2026-05-05 19:34 | 61.99134 | -6.98838 | 3704 ft | 129 kts | 298° |
| 2026-05-05 19:34 | 61.99556 | -7.00513 | 3513 ft | 129 kts | 300° |
| 2026-05-05 19:35 | 62.00391 | -7.03832 | 3099 ft | 127 kts | 300° |
| 2026-05-05 19:35 | 62.00800 | -7.05488 | 2900 ft | 127 kts | 299° |
| 2026-05-05 19:35 | 62.01204 | -7.07155 | 2702 ft | 127 kts | 300° |
| 2026-05-05 19:35 | 62.01634 | -7.08778 | 2503 ft | 125 kts | 301° |
| 2026-05-05 19:36 | 62.02053 | -7.10414 | 2273 ft | 125 kts | 300° |
| 2026-05-05 19:36 | 62.02449 | -7.12060 | 2068 ft | 124 kts | 298° |
| 2026-05-05 19:36 | 62.02841 | -7.13700 | 1861 ft | 124 kts | 301° |
| 2026-05-05 19:36 | 62.03258 | -7.15304 | 1635 ft | 124 kts | 300° |
| 2026-05-05 19:37 | 62.03667 | -7.16926 | 1442 ft | 124 kts | 300° |
| 2026-05-05 19:37 | 62.04077 | -7.18539 | 1228 ft | 122 kts | 300° |
| 2026-05-05 19:37 | 62.04488 | -7.20179 | 975 ft | 125 kts | 300° |
| 2026-05-05 19:37 | 62.04889 | -7.21798 | 752 ft | 124 kts | 299° |
| 2026-05-05 19:38 | 62.05281 | -7.23410 | 574 ft | 125 kts | 301° |
| 2026-05-05 19:38 | 62.05680 | -7.25048 | 408 ft | 125 kts | 302° |
| 2026-05-05 19:38 | 62.05954 | -7.26127 | 297 ft | 124 kts | 300° |
| 2026-05-05 19:38 | 62.06309 | -7.27534 | 289 ft | 77 kts | 297° |
| 2026-05-05 19:39 | 62.06426 | -7.28014 | 294 ft | 13 kts | 297° |
| 2026-05-05 19:39 | 62.06522 | -7.28102 | 295 ft | 15 kts | 24° |
| 2026-05-05 19:39 | 62.06559 | -7.28078 | 292 ft | 0 kts | 10° |
| 2026-05-05 19:40 | 62.06560 | -7.28078 | 296 ft | 1 kts | 9° |
| 2026-05-05 19:40 | 62.06587 | -7.28071 | 292 ft | 6 kts | 5° |
| 2026-05-05 19:40 | 62.06624 | -7.28064 | 297 ft | 2 kts | 8° |
| 2026-05-05 19:40 | 62.06639 | -7.28033 | 293 ft | 4 kts | 63° |
| 2026-05-05 19:41 | 62.06647 | -7.27972 | 297 ft | 5 kts | 61° |
| 2026-05-05 19:41 | 62.06672 | -7.27937 | 292 ft | 5 kts | 28° |
| 2026-05-05 19:41 | 62.06682 | -7.27925 | 293 ft | 0 kts | 28° |
| 2026-05-05 19:41 | 62.06685 | -7.27921 | 293 ft | 0 kts | 28° |